createdAt,value
2022-08-17T00:00:52.342Z,948.1
2022-08-17T00:01:55.001Z,948.1
2022-08-17T00:02:58.977Z,948.1
2022-08-17T00:04:01.140Z,948.1
2022-08-17T00:05:03.118Z,948.1
2022-08-17T00:06:05.040Z,948.1
2022-08-17T00:07:06.893Z,948.1
2022-08-17T00:08:08.739Z,948.2
2022-08-17T00:09:19.646Z,948.2
2022-08-17T00:10:21.348Z,948.1
2022-08-17T00:11:23.225Z,948.2
2022-08-17T00:12:45.018Z,948.1
2022-08-17T00:13:46.838Z,948.1
2022-08-17T00:14:48.721Z,948.1
2022-08-17T00:15:50.672Z,948.1
2022-08-17T00:16:58.053Z,948.1
2022-08-17T00:18:00.002Z,948.1
2022-08-17T00:19:09.132Z,948.1
2022-08-17T00:20:10.870Z,948.1
2022-08-17T00:21:14.174Z,948.1
2022-08-17T00:22:46.902Z,948.1
2022-08-17T00:23:50.422Z,948.1
2022-08-17T00:24:52.370Z,948.2
2022-08-17T00:25:54.196Z,948.1
2022-08-17T00:26:56.069Z,948.2
2022-08-17T00:27:58.535Z,948.1
2022-08-17T00:29:02.128Z,948.1
2022-08-17T00:30:03.974Z,948.1
2022-08-17T00:31:05.695Z,948.2
2022-08-17T00:33:24.035Z,948.1
2022-08-17T00:34:32.061Z,948.1
2022-08-17T00:35:35.557Z,948.1
2022-08-17T00:36:37.294Z,948.1
2022-08-17T00:37:39.146Z,948.1
2022-08-17T00:38:41.000Z,948.1
2022-08-17T00:39:43.004Z,948.1
2022-08-17T00:40:45.455Z,948
2022-08-17T00:41:47.161Z,948
2022-08-17T00:42:49.693Z,948
2022-08-17T00:43:51.990Z,948
2022-08-17T00:44:53.941Z,948
2022-08-17T00:45:55.788Z,948
2022-08-17T00:46:57.641Z,948
2022-08-17T00:47:59.593Z,948
2022-08-17T00:49:01.548Z,948
2022-08-17T00:50:03.394Z,948
2022-08-17T00:51:05.378Z,948
2022-08-17T00:52:12.932Z,948
2022-08-17T00:53:14.781Z,948
2022-08-17T00:54:16.736Z,948
2022-08-17T00:55:18.583Z,948
2022-08-17T00:56:20.434Z,948
2022-08-17T00:57:22.290Z,948
2022-08-17T00:58:37.040Z,948
2022-08-17T00:59:39.110Z,947.9
2022-08-17T01:00:41.196Z,948
2022-08-17T01:01:43.202Z,947.9
2022-08-17T01:02:45.263Z,947.9
2022-08-17T01:03:47.103Z,948
2022-08-17T01:04:48.958Z,948
2022-08-17T01:05:51.013Z,947.9
2022-08-17T01:06:53.269Z,947.9
2022-08-17T01:07:55.017Z,947.9
2022-08-17T01:08:58.342Z,947.9
2022-08-17T01:10:00.355Z,947.9
2022-08-17T01:11:02.727Z,948
2022-08-17T01:12:04.569Z,948
2022-08-17T01:13:06.418Z,948
2022-08-17T01:14:08.392Z,947.9
2022-08-17T01:15:10.219Z,947.9
2022-08-17T01:16:12.084Z,947.9
2022-08-17T01:17:13.890Z,947.9
2022-08-17T01:18:15.771Z,948
2022-08-17T01:19:17.623Z,948
2022-08-17T01:20:19.472Z,947.9
2022-08-17T01:21:21.321Z,947.9
2022-08-17T01:22:25.858Z,948
2022-08-17T01:23:27.681Z,948
2022-08-17T01:24:29.505Z,948
2022-08-17T01:25:31.381Z,948
2022-08-17T01:26:33.231Z,948
2022-08-17T01:27:36.003Z,948
2022-08-17T01:28:56.149Z,948
2022-08-17T01:29:58.035Z,947.9
2022-08-17T01:31:00.126Z,947.9
2022-08-17T01:32:01.935Z,947.9
2022-08-17T01:33:03.792Z,947.9
2022-08-17T01:34:05.642Z,947.9
2022-08-17T01:35:08.633Z,947.9
2022-08-17T01:36:10.470Z,947.9
2022-08-17T01:37:12.322Z,947.9
2022-08-17T01:38:14.162Z,947.9
2022-08-17T01:39:16.116Z,947.9
2022-08-17T01:40:18.068Z,947.8
2022-08-17T01:41:19.919Z,947.8
2022-08-17T01:42:21.870Z,947.8
2022-08-17T01:43:23.617Z,947.8
2022-08-17T01:44:28.036Z,947.8
2022-08-17T01:45:29.877Z,947.8
2022-08-17T01:46:31.934Z,947.8
2022-08-17T01:47:36.588Z,947.8
2022-08-17T01:48:38.399Z,947.8
2022-08-17T01:49:40.249Z,947.8
2022-08-17T01:50:42.203Z,947.8
2022-08-17T01:51:44.053Z,947.8
2022-08-17T01:52:45.906Z,947.8
2022-08-17T01:53:47.853Z,947.8
2022-08-17T01:54:49.703Z,947.9
2022-08-17T01:55:51.554Z,947.9
2022-08-17T01:56:53.403Z,947.9
2022-08-17T01:57:55.255Z,947.9
2022-08-17T01:58:57.104Z,947.9
2022-08-17T01:59:58.929Z,947.9
2022-08-17T02:01:02.346Z,947.9
2022-08-17T02:02:04.292Z,947.9
2022-08-17T02:03:06.147Z,947.9
2022-08-17T02:04:08.098Z,947.9
2022-08-17T02:05:09.942Z,948
2022-08-17T02:06:28.654Z,947.9
2022-08-17T02:07:31.081Z,948
2022-08-17T02:09:03.673Z,948
2022-08-17T02:10:20.739Z,948
2022-08-17T02:11:23.732Z,948
2022-08-17T02:12:47.920Z,948
2022-08-17T02:14:03.978Z,948
2022-08-17T02:15:05.929Z,948
2022-08-17T02:16:07.764Z,948
2022-08-17T02:17:09.724Z,948
2022-08-17T02:18:11.567Z,948
2022-08-17T02:19:13.423Z,948.1
2022-08-17T02:20:42.726Z,948.1
2022-08-17T02:21:44.668Z,948.1
2022-08-17T02:22:46.821Z,948
2022-08-17T02:23:48.677Z,948
2022-08-17T02:25:02.879Z,948
2022-08-17T02:26:04.765Z,948
2022-08-17T02:27:06.715Z,948
2022-08-17T02:28:08.569Z,948
2022-08-17T02:29:10.420Z,948
2022-08-17T02:31:03.573Z,948
2022-08-17T02:32:05.316Z,948
2022-08-17T02:33:09.729Z,948
2022-08-17T02:34:11.477Z,948
2022-08-17T02:35:13.319Z,948
2022-08-17T02:36:15.096Z,948
2022-08-17T02:37:17.022Z,948.1
2022-08-17T02:38:18.972Z,948
2022-08-17T02:39:20.725Z,948
2022-08-17T02:40:37.214Z,948
2022-08-17T02:41:39.063Z,948
2022-08-17T02:42:40.708Z,948
2022-08-17T02:43:42.317Z,948
2022-08-17T02:44:44.201Z,948
2022-08-17T02:45:45.958Z,948
2022-08-17T02:46:47.900Z,948
2022-08-17T02:47:49.754Z,948
2022-08-17T02:48:51.398Z,948.1
2022-08-17T02:49:56.473Z,948
2022-08-17T02:50:58.388Z,948.1
2022-08-17T02:52:00.033Z,948
2022-08-17T02:53:05.747Z,948
2022-08-17T02:54:42.737Z,948
2022-08-17T02:55:44.492Z,948
2022-08-17T02:56:46.240Z,948.1
2022-08-17T02:57:47.995Z,948.1
2022-08-17T02:58:49.724Z,948
2022-08-17T02:59:51.369Z,948.1
2022-08-17T03:00:53.226Z,948
2022-08-17T03:01:55.087Z,948
2022-08-17T03:02:56.934Z,948
2022-08-17T03:03:58.481Z,948
2022-08-17T03:05:00.130Z,948
2022-08-17T03:06:01.800Z,948
2022-08-17T03:07:03.499Z,948.1
2022-08-17T03:08:05.174Z,948.1
2022-08-17T03:09:06.792Z,948.1
2022-08-17T03:10:08.456Z,948.1
2022-08-17T03:11:09.999Z,948.1
2022-08-17T03:12:11.726Z,948.1
2022-08-17T03:13:13.390Z,948.1
2022-08-17T03:14:15.085Z,948.1
2022-08-17T03:15:16.659Z,948.1
2022-08-17T03:16:18.480Z,948.1
2022-08-17T03:17:20.843Z,948.1
2022-08-17T03:18:26.558Z,948.1
2022-08-17T03:19:28.366Z,948.2
2022-08-17T03:20:29.987Z,948.2
2022-08-17T03:21:31.603Z,948.2
2022-08-17T03:22:38.704Z,948.2
2022-08-17T03:23:42.125Z,948.2
2022-08-17T03:24:45.103Z,948.2
2022-08-17T03:25:46.888Z,948.3
2022-08-17T03:26:48.450Z,948.3
2022-08-17T03:27:51.864Z,948.2
2022-08-17T03:28:53.641Z,948.2
2022-08-17T03:29:55.297Z,948.2
2022-08-17T03:30:56.910Z,948.2
2022-08-17T03:31:58.560Z,948.3
2022-08-17T03:33:00.119Z,948.3
2022-08-17T03:34:01.865Z,948.3
2022-08-17T03:35:03.504Z,948.2
2022-08-17T03:36:05.143Z,948.3
2022-08-17T03:37:06.819Z,948.3
2022-08-17T03:38:08.426Z,948.3
2022-08-17T03:39:10.086Z,948.3
2022-08-17T03:40:11.951Z,948.2
2022-08-17T03:41:13.978Z,948.3
2022-08-17T03:42:33.229Z,948.3
2022-08-17T03:43:34.980Z,948.3
2022-08-17T03:44:36.648Z,948.3
2022-08-17T03:45:38.904Z,948.4
2022-08-17T03:46:41.266Z,948.4
2022-08-17T03:47:44.534Z,948.4
2022-08-17T03:48:46.155Z,948.4
2022-08-17T03:49:47.793Z,948.4
2022-08-17T03:50:52.043Z,948.4
2022-08-17T03:51:53.655Z,948.4
2022-08-17T03:52:55.311Z,948.4
2022-08-17T03:53:56.848Z,948.4
2022-08-17T03:54:58.446Z,948.4
2022-08-17T03:56:00.001Z,948.4
2022-08-17T03:57:01.558Z,948.4
2022-08-17T03:58:03.335Z,948.4
2022-08-17T03:59:05.201Z,948.5
2022-08-17T04:00:06.936Z,948.5
2022-08-17T04:01:08.914Z,948.5
2022-08-17T04:02:10.650Z,948.5
2022-08-17T04:03:12.189Z,948.5
2022-08-17T04:04:13.945Z,948.5
2022-08-17T04:05:15.687Z,948.6
2022-08-17T04:06:17.338Z,948.6
2022-08-17T04:07:18.981Z,948.5
2022-08-17T04:08:20.622Z,948.5
2022-08-17T04:09:22.138Z,948.5
2022-08-17T04:10:26.798Z,948.5
2022-08-17T04:11:28.318Z,948.5
2022-08-17T04:12:29.955Z,948.5
2022-08-17T04:13:31.594Z,948.5
2022-08-17T04:14:33.260Z,948.5
2022-08-17T04:15:34.912Z,948.5
2022-08-17T04:16:36.465Z,948.5
2022-08-17T04:17:38.035Z,948.6
2022-08-17T04:18:39.604Z,948.6
2022-08-17T04:19:41.282Z,948.6
2022-08-17T04:20:42.825Z,948.6
2022-08-17T04:21:44.394Z,948.6
2022-08-17T04:22:52.002Z,948.6
2022-08-17T04:23:57.532Z,948.6
2022-08-17T04:24:59.239Z,948.6
2022-08-17T04:26:00.878Z,948.6
2022-08-17T04:27:02.507Z,948.6
2022-08-17T04:28:16.343Z,948.6
2022-08-17T04:29:18.412Z,948.6
2022-08-17T04:30:20.055Z,948.6
2022-08-17T04:31:21.643Z,948.6
2022-08-17T04:33:19.444Z,948.6
2022-08-17T04:34:21.191Z,948.6
2022-08-17T04:35:22.953Z,948.7
2022-08-17T04:36:24.582Z,948.7
2022-08-17T04:37:26.131Z,948.7
2022-08-17T04:38:27.856Z,948.7
2022-08-17T04:39:29.855Z,948.7
2022-08-17T04:40:31.675Z,948.7
2022-08-17T04:41:33.223Z,948.7
2022-08-17T04:42:34.788Z,948.7
2022-08-17T04:43:36.427Z,948.7
2022-08-17T04:44:38.565Z,948.7
2022-08-17T04:45:40.201Z,948.7
2022-08-17T04:46:58.445Z,948.7
2022-08-17T04:47:59.991Z,948.7
2022-08-17T04:49:01.619Z,948.7
2022-08-17T04:50:03.378Z,948.7
2022-08-17T04:51:05.131Z,948.8
2022-08-17T04:52:06.784Z,948.8
2022-08-17T04:53:33.600Z,948.8
2022-08-17T04:54:35.322Z,948.8
2022-08-17T04:55:36.924Z,948.8
2022-08-17T04:56:38.551Z,948.8
2022-08-17T04:57:45.523Z,948.8
2022-08-17T04:58:47.191Z,948.9
2022-08-17T04:59:48.741Z,948.9
2022-08-17T05:00:50.675Z,948.9
2022-08-17T05:01:52.704Z,948.9
2022-08-17T05:02:55.111Z,948.9
2022-08-17T05:03:57.392Z,948.9
2022-08-17T05:05:00.406Z,948.9
2022-08-17T05:06:02.094Z,948.9
2022-08-17T05:07:03.717Z,948.9
2022-08-17T05:08:05.751Z,948.9
2022-08-17T05:09:07.521Z,948.9
2022-08-17T05:10:09.247Z,948.9
2022-08-17T05:11:10.916Z,948.8
2022-08-17T05:12:12.659Z,948.8
2022-08-17T05:13:14.192Z,948.8
2022-08-17T05:14:15.736Z,948.8
2022-08-17T05:15:19.829Z,948.9
2022-08-17T05:16:24.133Z,948.8
2022-08-17T05:17:25.700Z,948.9
2022-08-17T05:18:27.345Z,948.9
2022-08-17T05:19:28.990Z,948.9
2022-08-17T05:20:30.658Z,948.9
2022-08-17T05:21:32.362Z,949
2022-08-17T05:22:33.895Z,948.9
2022-08-17T05:23:46.125Z,948.9
2022-08-17T05:24:58.206Z,949
2022-08-17T05:26:02.289Z,948.9
2022-08-17T05:27:07.121Z,948.9
2022-08-17T05:28:09.701Z,949
2022-08-17T05:29:11.337Z,949
2022-08-17T05:30:13.081Z,949
2022-08-17T05:31:14.921Z,948.9
2022-08-17T05:32:40.653Z,948.9
2022-08-17T05:33:46.679Z,948.9
2022-08-17T05:34:48.220Z,948.9
2022-08-17T05:35:49.968Z,948.9
2022-08-17T05:36:51.599Z,949
2022-08-17T05:37:56.844Z,949
2022-08-17T05:38:59.990Z,949
2022-08-17T05:40:02.102Z,949
2022-08-17T05:41:04.160Z,949
2022-08-17T05:42:05.749Z,949
2022-08-17T05:43:07.402Z,949
2022-08-17T05:44:09.173Z,948.9
2022-08-17T05:45:10.841Z,948.9
2022-08-17T05:46:12.428Z,948.9
2022-08-17T05:47:13.974Z,949
2022-08-17T05:48:15.620Z,949
2022-08-17T05:49:17.209Z,948.9
2022-08-17T05:50:27.338Z,948.9
2022-08-17T05:51:31.647Z,948.9
2022-08-17T05:52:33.494Z,948.9
2022-08-17T05:53:43.129Z,948.9
2022-08-17T05:54:47.665Z,948.9
2022-08-17T05:55:49.408Z,948.9
2022-08-17T05:56:50.981Z,948.9
2022-08-17T05:57:56.364Z,948.9
2022-08-17T05:58:58.421Z,948.9
2022-08-17T06:00:00.091Z,948.9
2022-08-17T06:01:02.059Z,948.9
2022-08-17T06:02:03.764Z,948.9
2022-08-17T06:03:05.527Z,948.9
2022-08-17T06:04:07.153Z,948.9
2022-08-17T06:05:08.703Z,948.9
2022-08-17T06:06:11.780Z,948.9
2022-08-17T06:07:13.408Z,948.9
2022-08-17T06:08:15.175Z,948.9
2022-08-17T06:09:33.109Z,948.9
2022-08-17T06:10:35.666Z,948.9
2022-08-17T06:11:37.641Z,948.9
2022-08-17T06:12:39.182Z,948.9
2022-08-17T06:13:40.829Z,948.9
2022-08-17T06:14:42.557Z,948.9
2022-08-17T06:15:44.105Z,948.9
2022-08-17T06:16:45.639Z,948.9
2022-08-17T06:17:47.303Z,948.9
2022-08-17T06:18:48.849Z,948.9
2022-08-17T06:19:50.578Z,948.9
2022-08-17T06:20:52.255Z,948.9
2022-08-17T06:21:53.813Z,948.9
2022-08-17T06:22:55.381Z,948.9
2022-08-17T06:23:57.421Z,948.9
2022-08-17T06:24:59.025Z,948.9
2022-08-17T06:26:00.643Z,948.9
2022-08-17T06:27:02.362Z,948.9
2022-08-17T06:28:03.926Z,948.8
2022-08-17T06:29:19.046Z,948.9
2022-08-17T06:30:23.401Z,948.9
2022-08-17T06:31:25.072Z,948.9
2022-08-17T06:32:26.704Z,948.9
2022-08-17T06:33:28.327Z,948.9
2022-08-17T06:34:29.882Z,948.9
2022-08-17T06:35:34.402Z,948.9
2022-08-17T06:36:36.169Z,948.9
2022-08-17T06:37:37.699Z,948.9
2022-08-17T06:38:39.359Z,948.9
2022-08-17T06:39:41.242Z,948.9
2022-08-17T06:40:43.241Z,948.9
2022-08-17T06:41:44.805Z,948.9
2022-08-17T06:43:07.596Z,948.9
2022-08-17T06:44:09.501Z,948.9
2022-08-17T06:45:11.230Z,948.9
2022-08-17T06:46:12.777Z,948.9
2022-08-17T06:47:29.465Z,948.9
2022-08-17T06:48:31.110Z,948.9
2022-08-17T06:49:32.778Z,948.9
2022-08-17T06:50:34.425Z,948.9
2022-08-17T06:51:36.140Z,948.9
2022-08-17T06:52:56.754Z,948.9
2022-08-17T06:53:59.021Z,948.8
2022-08-17T06:55:00.635Z,948.9
2022-08-17T06:56:02.155Z,948.8
2022-08-17T06:57:03.954Z,948.9
2022-08-17T06:58:17.176Z,948.8
2022-08-17T06:59:18.721Z,948.9
2022-08-17T07:00:20.279Z,948.9
2022-08-17T07:01:22.244Z,948.9
2022-08-17T07:02:53.475Z,948.9
2022-08-17T07:03:55.276Z,948.9
2022-08-17T07:04:56.821Z,948.9
2022-08-17T07:05:58.366Z,948.9
2022-08-17T07:07:00.950Z,948.9
2022-08-17T07:08:02.555Z,948.9
2022-08-17T07:09:04.430Z,948.9
2022-08-17T07:10:06.274Z,948.9
2022-08-17T07:11:07.942Z,948.9
2022-08-17T07:12:09.581Z,948.9
2022-08-17T07:13:11.215Z,948.8
2022-08-17T07:14:17.869Z,948.9
2022-08-17T07:15:19.453Z,948.9
2022-08-17T07:16:21.196Z,948.9
2022-08-17T07:17:48.739Z,948.8
2022-08-17T07:18:50.478Z,948.8
2022-08-17T07:19:55.825Z,948.8
2022-08-17T07:20:57.409Z,948.8
2022-08-17T07:21:59.195Z,948.8
2022-08-17T07:23:01.578Z,948.8
2022-08-17T07:24:03.357Z,948.8
2022-08-17T07:25:05.038Z,948.8
2022-08-17T07:26:06.679Z,948.8
2022-08-17T07:27:08.442Z,948.8
2022-08-17T07:28:10.145Z,948.8
2022-08-17T07:29:11.767Z,948.8
2022-08-17T07:30:13.521Z,948.9
2022-08-17T07:31:15.087Z,948.9
2022-08-17T07:32:16.676Z,948.8
2022-08-17T07:33:18.913Z,948.8
2022-08-17T07:34:20.582Z,948.8
2022-08-17T07:35:22.419Z,948.8
2022-08-17T07:36:30.436Z,948.8
2022-08-17T07:37:31.990Z,948.8
2022-08-17T07:38:33.629Z,948.8
2022-08-17T07:40:16.884Z,948.8
2022-08-17T07:41:18.865Z,948.8
2022-08-17T07:42:20.624Z,948.8
2022-08-17T07:43:24.116Z,948.8
2022-08-17T07:44:25.745Z,948.8
2022-08-17T07:45:27.414Z,948.7
2022-08-17T07:46:29.083Z,948.8
2022-08-17T07:47:30.838Z,948.7
2022-08-17T07:48:32.419Z,948.7
2022-08-17T07:49:33.993Z,948.7
2022-08-17T07:50:37.519Z,948.7
2022-08-17T07:51:39.331Z,948.7
2022-08-17T07:52:52.691Z,948.7
2022-08-17T07:53:54.555Z,948.7
2022-08-17T07:55:00.131Z,948.7
2022-08-17T07:56:01.805Z,948.7
2022-08-17T07:57:03.421Z,948.7
2022-08-17T07:58:04.970Z,948.7
2022-08-17T07:59:07.635Z,948.7
2022-08-17T08:00:16.924Z,948.7
2022-08-17T08:01:19.527Z,948.7
2022-08-17T08:02:33.800Z,948.7
2022-08-17T08:03:41.144Z,948.7
2022-08-17T08:05:02.438Z,948.7
2022-08-17T08:06:04.214Z,948.7
2022-08-17T08:07:05.875Z,948.7
2022-08-17T08:08:07.412Z,948.7
2022-08-17T08:09:08.953Z,948.7
2022-08-17T08:10:10.589Z,948.6
2022-08-17T08:11:12.261Z,948.6
2022-08-17T08:12:17.165Z,948.7
2022-08-17T08:13:18.737Z,948.6
2022-08-17T08:14:20.395Z,948.7
2022-08-17T08:15:22.188Z,948.6
2022-08-17T08:16:23.835Z,948.6
2022-08-17T08:17:25.585Z,948.7
2022-08-17T08:18:58.313Z,948.6
2022-08-17T08:20:00.399Z,948.6
2022-08-17T08:21:55.631Z,948.6
2022-08-17T08:22:57.271Z,948.6
2022-08-17T08:23:58.896Z,948.6
2022-08-17T08:25:00.486Z,948.6
2022-08-17T08:26:02.085Z,948.6
2022-08-17T08:27:04.666Z,948.6
2022-08-17T08:28:06.320Z,948.6
2022-08-17T08:29:08.052Z,948.6
2022-08-17T08:30:09.890Z,948.6
2022-08-17T08:31:11.562Z,948.6
2022-08-17T08:32:13.200Z,948.6
2022-08-17T08:33:14.751Z,948.5
2022-08-17T08:35:03.634Z,948.5
2022-08-17T08:36:05.622Z,948.6
2022-08-17T08:37:35.672Z,948.5
2022-08-17T08:38:44.471Z,948.5
2022-08-17T08:39:46.250Z,948.6
2022-08-17T08:40:48.277Z,948.5
2022-08-17T08:41:49.825Z,948.4
2022-08-17T08:42:51.366Z,948.5
2022-08-17T08:43:53.803Z,948.5
2022-08-17T08:45:05.751Z,948.5
2022-08-17T08:46:07.668Z,948.5
2022-08-17T08:47:09.213Z,948.5
2022-08-17T08:48:58.806Z,948.5
2022-08-17T08:50:38.910Z,948.5
2022-08-17T08:51:40.657Z,948.4
2022-08-17T08:52:42.322Z,948.4
2022-08-17T08:53:43.915Z,948.4
2022-08-17T08:54:45.591Z,948.4
2022-08-17T08:55:47.255Z,948.4
2022-08-17T08:57:34.250Z,948.5
2022-08-17T08:58:43.157Z,948.4
2022-08-17T08:59:58.832Z,948.5
2022-08-17T09:01:00.799Z,948.4
2022-08-17T09:02:02.636Z,948.4
2022-08-17T09:03:04.307Z,948.4
2022-08-17T09:04:26.097Z,948.4
2022-08-17T09:05:28.062Z,948.4
2022-08-17T09:06:40.455Z,948.4
2022-08-17T09:07:42.135Z,948.4
2022-08-17T09:08:43.966Z,948.4
2022-08-17T09:09:45.608Z,948.4
2022-08-17T09:10:47.246Z,948.4
2022-08-17T09:12:04.491Z,948.3
2022-08-17T09:13:11.098Z,948.3
2022-08-17T09:14:28.925Z,948.3
2022-08-17T09:15:30.978Z,948.3
2022-08-17T09:16:32.600Z,948.3
2022-08-17T09:17:34.292Z,948.3
2022-08-17T09:19:05.389Z,948.3
2022-08-17T09:20:07.490Z,948.3
2022-08-17T09:21:09.213Z,948.3
2022-08-17T09:22:10.767Z,948.3
2022-08-17T09:23:12.394Z,948.3
2022-08-17T09:24:21.153Z,948.3
2022-08-17T09:25:22.781Z,948.2
2022-08-17T09:26:24.322Z,948.2
2022-08-17T09:27:25.969Z,948.3
2022-08-17T09:28:27.553Z,948.3
2022-08-17T09:29:29.181Z,948.3
2022-08-17T09:30:30.735Z,948.3
2022-08-17T09:31:33.960Z,948.3
2022-08-17T09:32:35.608Z,948.3
2022-08-17T09:33:37.222Z,948.2
2022-08-17T09:34:43.760Z,948.3
2022-08-17T09:35:50.131Z,948.3
2022-08-17T09:36:51.650Z,948.3
2022-08-17T09:37:53.276Z,948.3
2022-08-17T09:38:54.880Z,948.3
2022-08-17T09:39:56.994Z,948.3
2022-08-17T09:40:58.736Z,948.3
2022-08-17T09:42:00.473Z,948.2
2022-08-17T09:43:02.095Z,948.3
2022-08-17T09:44:03.775Z,948.3
2022-08-17T09:45:05.409Z,948.3
2022-08-17T09:46:07.134Z,948.3
2022-08-17T09:47:08.806Z,948.2
2022-08-17T09:48:10.419Z,948.3
2022-08-17T09:49:12.169Z,948.3
2022-08-17T09:50:13.826Z,948.3
2022-08-17T09:51:15.430Z,948.3
2022-08-17T09:52:18.481Z,948.2
2022-08-17T09:53:20.156Z,948.3
2022-08-17T09:54:40.924Z,948.3
2022-08-17T09:55:42.689Z,948.2
2022-08-17T09:57:26.174Z,948.2
2022-08-17T09:58:32.291Z,948.3
2022-08-17T09:59:42.035Z,948.2
2022-08-17T10:00:44.042Z,948.2
2022-08-17T10:01:46.072Z,948.2
2022-08-17T10:02:47.868Z,948.2
2022-08-17T10:03:49.459Z,948.2
2022-08-17T10:04:51.102Z,948.2
2022-08-17T10:05:57.409Z,948.1
2022-08-17T10:06:59.155Z,948.1
2022-08-17T10:08:00.698Z,948.1
2022-08-17T10:09:02.288Z,948.2
2022-08-17T10:10:04.050Z,948.1
2022-08-17T10:11:06.184Z,948.1
2022-08-17T10:12:09.572Z,948.1
2022-08-17T10:13:12.848Z,948.1
2022-08-17T10:14:44.831Z,948.1
2022-08-17T10:15:56.894Z,948.1
2022-08-17T10:16:58.554Z,948.1
2022-08-17T10:18:00.095Z,948.1
2022-08-17T10:19:01.744Z,948.1
2022-08-17T10:20:03.576Z,948.1
2022-08-17T10:21:05.342Z,948
2022-08-17T10:22:38.362Z,948
2022-08-17T10:23:40.297Z,948
2022-08-17T10:25:30.171Z,948
2022-08-17T10:26:57.831Z,948
2022-08-17T10:27:59.447Z,948
2022-08-17T10:29:00.996Z,947.9
2022-08-17T10:30:02.613Z,948
2022-08-17T10:31:36.389Z,948
2022-08-17T10:32:38.141Z,948
2022-08-17T10:33:39.879Z,948
2022-08-17T10:34:42.274Z,948
2022-08-17T10:35:43.941Z,948
2022-08-17T10:36:45.584Z,948
2022-08-17T10:37:47.517Z,947.9
2022-08-17T10:38:49.178Z,948
2022-08-17T10:39:53.533Z,948
2022-08-17T10:40:55.526Z,948
2022-08-17T10:41:57.173Z,948
2022-08-17T10:42:59.022Z,947.9
2022-08-17T10:44:41.730Z,947.9
2022-08-17T10:45:47.368Z,947.9
2022-08-17T10:46:49.031Z,947.9
2022-08-17T10:48:04.260Z,947.8
2022-08-17T10:49:08.339Z,947.8
2022-08-17T10:50:09.995Z,947.8
2022-08-17T10:51:12.385Z,947.8
2022-08-17T10:52:14.429Z,947.8
2022-08-17T10:53:20.380Z,947.8
2022-08-17T10:54:22.943Z,947.8
2022-08-17T10:55:24.516Z,947.8
2022-08-17T10:56:26.149Z,947.8
2022-08-17T10:57:27.918Z,947.8
2022-08-17T10:58:29.536Z,947.7
2022-08-17T10:59:31.084Z,947.8
2022-08-17T11:00:32.647Z,947.8
2022-08-17T11:01:34.841Z,947.8
2022-08-17T11:02:36.834Z,947.8
2022-08-17T11:03:38.442Z,947.8
2022-08-17T11:04:40.124Z,947.8
2022-08-17T11:05:44.638Z,947.7
2022-08-17T11:06:46.295Z,947.7
2022-08-17T11:07:47.841Z,947.7
2022-08-17T11:08:49.469Z,947.8
2022-08-17T11:09:51.215Z,947.7
2022-08-17T11:10:52.786Z,947.7
2022-08-17T11:11:54.331Z,947.8
2022-08-17T11:12:56.253Z,947.8
2022-08-17T11:13:57.797Z,947.8
2022-08-17T11:14:59.646Z,947.7
2022-08-17T11:16:08.790Z,947.8
2022-08-17T11:17:12.639Z,947.8
2022-08-17T11:18:14.220Z,947.7
2022-08-17T11:19:15.772Z,947.8
2022-08-17T11:20:17.426Z,947.8
2022-08-17T11:21:18.982Z,947.8
2022-08-17T11:22:20.688Z,947.7
2022-08-17T11:23:22.215Z,947.8
2022-08-17T11:24:24.185Z,947.7
2022-08-17T11:25:25.948Z,947.7
2022-08-17T11:26:27.679Z,947.7
2022-08-17T11:27:29.235Z,947.8
2022-08-17T11:28:30.865Z,947.7
2022-08-17T11:29:36.436Z,947.6
2022-08-17T11:30:38.609Z,947.7
2022-08-17T11:31:41.534Z,947.7
2022-08-17T11:32:55.381Z,947.7
2022-08-17T11:33:58.157Z,947.7
2022-08-17T11:34:59.886Z,947.7
2022-08-17T11:36:01.490Z,947.7
2022-08-17T11:37:03.286Z,947.7
2022-08-17T11:38:05.952Z,947.7
2022-08-17T11:39:15.708Z,947.8
2022-08-17T11:40:17.690Z,947.8
2022-08-17T11:41:19.695Z,947.8
2022-08-17T11:42:21.367Z,947.8
2022-08-17T11:43:25.972Z,947.8
2022-08-17T11:44:27.717Z,947.9
2022-08-17T11:45:33.349Z,947.8
2022-08-17T11:46:34.972Z,947.8
2022-08-17T11:47:36.642Z,947.8
2022-08-17T11:48:38.245Z,947.8
2022-08-17T11:49:40.042Z,947.9
2022-08-17T11:50:41.726Z,947.9
2022-08-17T11:51:43.370Z,947.9
2022-08-17T11:52:47.352Z,947.9
2022-08-17T11:53:49.063Z,947.9
2022-08-17T11:54:50.694Z,948
2022-08-17T11:55:52.554Z,947.9
2022-08-17T11:56:54.347Z,947.9
2022-08-17T11:57:56.176Z,948
2022-08-17T11:58:57.739Z,948
2022-08-17T11:59:59.649Z,948
2022-08-17T12:01:01.504Z,948
2022-08-17T12:02:03.373Z,948
2022-08-17T12:03:05.140Z,948
2022-08-17T12:04:07.163Z,948
2022-08-17T12:05:12.648Z,948
2022-08-17T12:06:14.243Z,948
2022-08-17T12:07:15.777Z,948.1
2022-08-17T12:08:17.430Z,948.1
2022-08-17T12:09:19.203Z,948.1
2022-08-17T12:10:21.246Z,948.1
2022-08-17T12:12:14.845Z,948.1
2022-08-17T12:13:17.579Z,948.1
2022-08-17T12:15:08.747Z,948.2
2022-08-17T12:16:13.137Z,948.2
2022-08-17T12:17:52.865Z,948.1
2022-08-17T12:18:55.266Z,948.1
2022-08-17T12:19:56.833Z,948.1
2022-08-17T12:20:58.454Z,948.1
2022-08-17T12:22:00.079Z,948.1
2022-08-17T12:23:01.973Z,948.1
2022-08-17T12:24:03.616Z,948.1
2022-08-17T12:25:05.278Z,948.1
2022-08-17T12:26:06.915Z,948.1
2022-08-17T12:27:08.495Z,948.1
2022-08-17T12:28:11.459Z,948.1
2022-08-17T12:29:39.380Z,948
2022-08-17T12:30:41.128Z,948.1
2022-08-17T12:31:42.888Z,948
2022-08-17T12:32:44.507Z,948
2022-08-17T12:33:46.056Z,948
2022-08-17T12:34:47.729Z,947.9
2022-08-17T12:35:59.514Z,948
2022-08-17T12:37:01.430Z,948
2022-08-17T12:38:03.925Z,948
2022-08-17T12:39:21.622Z,948
2022-08-17T12:40:27.893Z,948
2022-08-17T12:41:29.546Z,947.9
2022-08-17T12:42:31.263Z,948
2022-08-17T12:43:33.015Z,947.9
2022-08-17T12:44:50.004Z,947.9
2022-08-17T12:45:52.446Z,947.9
2022-08-17T12:46:54.348Z,947.9
2022-08-17T12:47:56.103Z,947.9
2022-08-17T12:49:00.508Z,947.9
2022-08-17T12:50:02.136Z,947.9
2022-08-17T12:51:03.884Z,947.9
2022-08-17T12:52:05.478Z,947.8
2022-08-17T12:53:07.021Z,947.8
2022-08-17T12:54:11.687Z,947.8
2022-08-17T12:55:13.353Z,947.9
2022-08-17T12:56:15.080Z,947.8
2022-08-17T12:57:16.725Z,947.8
2022-08-17T12:58:18.356Z,947.8
2022-08-17T12:59:33.124Z,947.7
2022-08-17T13:00:34.974Z,947.8
2022-08-17T13:01:36.842Z,947.7
2022-08-17T13:02:38.689Z,947.7
2022-08-17T13:03:40.224Z,947.8
2022-08-17T13:04:42.005Z,947.8
2022-08-17T13:05:43.730Z,947.7
2022-08-17T13:06:45.428Z,947.7
2022-08-17T13:07:47.710Z,947.7
2022-08-17T13:08:49.489Z,947.7
2022-08-17T13:09:51.232Z,947.7
2022-08-17T13:10:52.884Z,947.6
2022-08-17T13:11:54.611Z,947.7
2022-08-17T13:12:56.373Z,947.7
2022-08-17T13:13:57.992Z,947.7
2022-08-17T13:14:59.663Z,947.7
2022-08-17T13:16:01.358Z,947.7
2022-08-17T13:17:02.953Z,947.7
2022-08-17T13:18:04.594Z,947.7
2022-08-17T13:19:06.253Z,947.7
2022-08-17T13:20:07.894Z,947.7
2022-08-17T13:21:09.514Z,947.7
2022-08-17T13:22:11.041Z,947.7
2022-08-17T13:23:13.024Z,947.7
2022-08-17T13:24:14.685Z,947.7
2022-08-17T13:25:16.611Z,947.7
2022-08-17T13:26:18.167Z,947.7
2022-08-17T13:27:19.902Z,947.7
2022-08-17T13:28:36.797Z,947.7
2022-08-17T13:29:38.514Z,947.7
2022-08-17T13:30:40.092Z,947.8
2022-08-17T13:32:04.794Z,947.7
2022-08-17T13:33:19.124Z,947.7
2022-08-17T13:35:32.910Z,947.7
2022-08-17T13:36:48.811Z,947.7
2022-08-17T13:37:52.937Z,947.7
2022-08-17T13:38:54.649Z,947.7
2022-08-17T13:39:56.590Z,947.7
2022-08-17T13:40:58.451Z,947.7
2022-08-17T13:42:00.251Z,947.7
2022-08-17T13:43:01.983Z,947.7
2022-08-17T13:44:03.647Z,947.7
2022-08-17T13:45:39.629Z,947.7
2022-08-17T13:46:43.616Z,947.7
2022-08-17T13:47:45.349Z,947.7
2022-08-17T13:48:47.074Z,947.7
2022-08-17T13:49:49.846Z,947.7
2022-08-17T13:50:51.477Z,947.7
2022-08-17T13:51:55.806Z,947.7
2022-08-17T13:52:59.528Z,947.7
2022-08-17T13:54:01.365Z,947.6
2022-08-17T13:55:03.061Z,947.6
2022-08-17T13:56:05.053Z,947.7
2022-08-17T13:57:06.592Z,947.6
2022-08-17T13:58:08.625Z,947.6
2022-08-17T13:59:10.381Z,947.6
2022-08-17T14:00:11.953Z,947.6
2022-08-17T14:01:13.694Z,947.6
2022-08-17T14:02:15.496Z,947.6